Time;durP1;ratioP1;P1;durP2;ratioP2;P2;SDS_P1;SDS_P2;PMS_P1;PMS_P2;Temp;Humidity;BMP_temperature;BMP_pressure;BME280_temperature;BME280_humidity;BME280_pressure;Samples;Min_cycle;Max_cycle;Signal;HPM_P1;HPM_P2
2022/03/26 00:00:27;;;;;;;;;;;;;;;21.97;34.36;95999.16;2045584;29;1671;-71
2022/03/26 00:01:28;;;;;;;;;;;;;;;21.98;34.46;96008.00;2047496;29;1495;-71
2022/03/26 00:02:30;;;;;;;;;;;;;;;21.97;34.39;96004.50;2048614;29;1416;-70
2022/03/26 00:03:32;;;;;;;;;;;;;;;21.98;34.62;96005.31;2049264;29;993;-70
2022/03/26 00:04:33;;;;;;;;;;;;;;;21.98;34.57;96003.47;2049626;28;1024;-71
2022/03/26 00:05:35;;;;;;;;;;;;;;;22.01;34.47;96004.91;2050059;28;1098;-71
2022/03/26 00:06:37;;;;;;;;;;;;;;;22.01;34.58;96013.78;2049256;28;1424;-71
2022/03/26 00:07:38;;;;;;;;;;;;;;;22.02;34.47;96010.06;2055555;28;1640;-72
2022/03/26 00:08:40;;;;;;;;;;;;;;;22.02;34.42;96010.06;2043289;29;1504;-71
2022/03/26 00:09:41;;;;;;;;;;;;;;;22.02;34.41;96010.06;2041031;29;1720;-70
2022/03/26 00:10:43;;;;;;;;;;;;;;;22.02;34.64;96015.41;2045029;29;1406;-71
2022/03/26 00:11:45;;;;;;;;;;;;;;;22.02;34.51;96018.09;2049614;28;1721;-71
2022/03/26 00:12:46;;;;;;;;;;;;;;;22.02;34.50;96018.09;2049626;28;1651;-71
2022/03/26 00:13:48;;;;;;;;;;;;;;;22.02;34.92;96020.75;2041250;29;1747;-70
2022/03/26 00:14:49;;;;;;;;;;;;;;;22.02;34.60;96018.09;2041066;29;1514;-71
2022/03/26 00:15:51;;;;;;;;;;;;;;;22.02;34.71;96026.13;2042050;29;1990;-71
2022/03/26 00:16:53;;;;;;;;;;;;;;;22.03;34.71;96017.09;2041954;29;964;-71
2022/03/26 00:17:55;;;;;;;;;;;;;;;22.01;34.67;96019.13;2041401;29;1089;-71
2022/03/26 00:18:56;;;;;;;;;;;;;;;22.02;34.63;96020.75;2041268;29;1417;-70
2022/03/26 00:19:58;;;;;;;;;;;;;;;22.05;34.46;96020.41;2045072;28;1552;-77
2022/03/26 00:21:00;;;;;;;;;;;;;;;22.13;34.25;96017.53;2049584;29;1282;-77
2022/03/26 00:22:02;;;;;;;;;;;;;;;22.20;34.66;96017.59;2049028;29;1474;-77
2022/03/26 00:23:03;;;;;;;;;;;;;;;22.24;34.43;96016.16;2049363;29;1143;-76
2022/03/26 00:24:06;;;;;;;;;;;;;;;22.26;34.24;96015.97;2048497;29;1722;-71
2022/03/26 00:25:10;;;;;;;;;;;;;;;22.21;34.45;96023.78;2049418;29;1502;-71
2022/03/26 00:26:12;;;;;;;;;;;;;;;22.17;34.73;96014.47;2048513;28;1641;-71
2022/03/26 00:27:14;;;;;;;;;;;;;;;22.15;34.38;96025.38;2047360;29;1365;-74
2022/03/26 00:28:16;;;;;;;;;;;;;;;22.12;34.68;96028.47;2041877;29;1116;-74
2022/03/26 00:29:18;;;;;;;;;;;;;;;22.08;34.98;96028.03;2041338;29;1537;-74
2022/03/26 00:30:19;;;;;;;;;;;;;;;22.08;35.07;96020.00;2046845;29;1489;-73
2022/03/26 00:31:21;;;;;;;;;;;;;;;22.08;34.99;96022.69;2047632;28;1592;-74
2022/03/26 00:32:23;;;;;;;;;;;;;;;22.09;35.27;96023.50;2049909;29;1090;-73
2022/03/26 00:33:25;;;;;;;;;;;;;;;22.09;35.12;96024.31;2048961;29;1028;-73
2022/03/26 00:34:26;;;;;;;;;;;;;;;22.08;35.07;96025.34;2042267;29;1469;-73
2022/03/26 00:35:28;;;;;;;;;;;;;;;22.08;35.22;96022.69;2041695;29;1124;-74
2022/03/26 00:36:30;;;;;;;;;;;;;;;22.08;35.11;96021.84;2048732;28;1914;-73
2022/03/26 00:37:32;;;;;;;;;;;;;;;22.07;35.07;96018.34;2049914;28;1124;-71
2022/03/26 00:38:33;;;;;;;;;;;;;;;22.07;34.88;96021.00;2050085;28;1050;-74
2022/03/26 00:39:36;;;;;;;;;;;;;;;22.08;34.94;96022.69;2050202;28;1163;-72
2022/03/26 00:40:38;;;;;;;;;;;;;;;22.08;35.01;96022.69;2048919;29;1722;-70
2022/03/26 00:41:39;;;;;;;;;;;;;;;22.09;35.14;96013.63;2044166;29;1101;-71
2022/03/26 00:42:41;;;;;;;;;;;;;;;22.07;35.18;96015.66;2048318;29;1507;-71
2022/03/26 00:43:42;;;;;;;;;;;;;;;22.04;35.14;96026.75;2046791;29;1567;-72
2022/03/26 00:44:44;;;;;;;;;;;;;;;22.02;35.35;96019.94;2048020;29;1574;-70
2022/03/26 00:45:46;;;;;;;;;;;;;;;21.99;35.55;96018.47;2049810;28;1048;-71
2022/03/26 00:46:47;;;;;;;;;;;;;;;22.00;35.68;96020.16;2049658;28;1168;-71
2022/03/26 00:47:49;;;;;;;;;;;;;;;21.99;35.48;96018.47;2046222;28;1679;-70
2022/03/26 00:48:51;;;;;;;;;;;;;;;22.01;35.63;96021.81;2049290;28;1006;-75
2022/03/26 00:49:54;;;;;;;;;;;;;;;22.12;35.17;96023.94;2050089;29;1083;-75
2022/03/26 00:50:56;;;;;;;;;;;;;;;22.22;35.28;96025.41;2050014;28;1040;-75
2022/03/26 00:51:57;;;;;;;;;;;;;;;22.28;34.98;96035.34;2049908;28;1167;-76
2022/03/26 00:52:59;;;;;;;;;;;;;;;22.31;34.90;96033.09;2044275;29;1216;-75
2022/03/26 00:54:01;;;;;;;;;;;;;;;22.34;35.11;96026.53;2049695;29;1051;-76
2022/03/26 00:55:03;;;;;;;;;;;;;;;22.35;34.90;96028.19;2049524;28;1742;-76
2022/03/26 00:56:05;;;;;;;;;;;;;;;22.39;34.98;96031.28;2049572;28;2299;-70
2022/03/26 00:57:06;;;;;;;;;;;;;;;22.41;34.92;96029.22;2050128;28;1032;-73
2022/03/26 00:58:08;;;;;;;;;;;;;;;22.42;34.89;96034.38;2049582;28;1066;-74
2022/03/26 00:59:09;;;;;;;;;;;;;;;22.45;34.65;96034.00;2048627;28;1420;-75
2022/03/26 01:00:12;;;;;;;;;;;;;;;22.46;34.82;96024.94;2047101;29;1455;-73
2022/03/26 01:01:13;;;;;;;;;;;;;;;22.46;34.53;96030.28;2042071;29;1036;-74
2022/03/26 01:02:16;;;;;;;;;;;;;;;22.48;34.68;96027.41;2042073;29;1101;-74
2022/03/26 01:03:18;;;;;;;;;;;;;;;22.48;34.58;96028.25;2037542;29;1238;-70
2022/03/26 01:04:20;;;;;;;;;;;;;;;22.49;34.72;96034.44;2040744;29;1028;-75
2022/03/26 01:05:21;;;;;;;;;;;;;;;22.48;34.64;96028.25;2043077;29;1509;-76
2022/03/26 01:06:23;;;;;;;;;;;;;;;22.51;34.75;96035.06;2047098;29;1683;-75
2022/03/26 01:07:26;;;;;;;;;;;;;;;22.50;34.85;96031.53;2048424;29;1333;-73
2022/03/26 01:08:29;;;;;;;;;;;;;;;22.50;34.87;96028.03;2049495;28;1671;-74
2022/03/26 01:09:30;;;;;;;;;;;;;;;22.51;34.90;96029.72;2050091;28;1044;-74
2022/03/26 01:10:32;;;;;;;;;;;;;;;22.51;34.88;96033.22;2049703;28;1669;-70
2022/03/26 01:11:34;;;;;;;;;;;;;;;22.57;34.65;96036.94;2047904;28;1513;-74
2022/03/26 01:12:35;;;;;;;;;;;;;;;22.56;34.70;96035.28;2049186;28;1752;-70
2022/03/26 01:13:38;;;;;;;;;;;;;;;22.57;34.85;96039.63;2049157;28;1541;-74
2022/03/26 01:14:40;;;;;;;;;;;;;;;22.57;35.02;96040.44;2044610;28;1575;-73
2022/03/26 01:15:42;;;;;;;;;;;;;;;22.58;34.59;96039.41;2042098;29;1067;-73
2022/03/26 01:16:43;;;;;;;;;;;;;;;22.56;34.87;96044.16;2040826;29;1992;-74
2022/03/26 01:17:45;;;;;;;;;;;;;;;22.55;34.88;96045.16;2041253;29;1100;-74
2022/03/26 01:18:47;;;;;;;;;;;;;;;22.58;34.78;96049.31;2042372;29;1464;-73
2022/03/26 01:19:50;;;;;;;;;;;;;;;22.55;35.12;96041.66;2049466;29;1066;-74
2022/03/26 01:20:52;;;;;;;;;;;;;;;22.56;34.81;96045.97;2045952;29;1656;-75
2022/03/26 01:21:53;;;;;;;;;;;;;;;22.57;34.77;96048.47;2049298;29;1505;-73
2022/03/26 01:22:55;;;;;;;;;;;;;;;22.60;34.73;96051.78;2042514;28;1507;-74
2022/03/26 01:23:57;;;;;;;;;;;;;;;22.58;34.92;96052.81;2041009;29;1023;-74
2022/03/26 01:24:59;;;;;;;;;;;;;;;22.58;35.13;96052.81;2040833;29;1070;-72
2022/03/26 01:26:02;;;;;;;;;;;;;;;22.58;35.06;96050.13;2036681;29;1076;-74
2022/03/26 01:27:04;;;;;;;;;;;;;;;22.60;35.03;96057.97;2041423;29;1109;-77
2022/03/26 01:28:05;;;;;;;;;;;;;;;22.62;34.83;96049.72;2041229;29;1112;-76
2022/03/26 01:29:09;;;;;;;;;;;;;;;22.55;35.44;96055.88;2041109;29;1526;-70
2022/03/26 01:30:11;;;;;;;;;;;;;;;22.39;35.55;96056.19;2047954;29;1666;-71
2022/03/26 01:31:12;;;;;;;;;;;;;;;22.30;35.54;96062.75;2039663;29;1543;-71
2022/03/26 01:32:14;;;;;;;;;;;;;;;22.24;35.54;96058.19;2040769;29;1203;-71
2022/03/26 01:33:16;;;;;;;;;;;;;;;22.21;35.92;96058.56;2042549;29;1519;-71
2022/03/26 01:34:17;;;;;;;;;;;;;;;22.19;36.08;96055.25;2049179;28;1104;-70
2022/03/26 01:35:19;;;;;;;;;;;;;;;22.16;35.97;96067.19;2045864;29;1705;-70
2022/03/26 01:36:22;;;;;;;;;;;;;;;22.15;36.24;96059.38;2042932;28;1939;-71
2022/03/26 01:37:24;;;;;;;;;;;;;;;22.13;36.11;96055.00;2048269;28;1493;-71
2022/03/26 01:38:25;;;;;;;;;;;;;;;22.12;36.14;96064.09;2048448;28;1468;-71
2022/03/26 01:39:27;;;;;;;;;;;;;;;22.11;36.30;96067.78;2048803;29;1541;-71
2022/03/26 01:40:29;;;;;;;;;;;;;;;22.09;36.31;96060.97;2048242;28;1501;-70
2022/03/26 01:41:30;;;;;;;;;;;;;;;22.08;36.41;96059.31;2048321;29;1043;-72
2022/03/26 01:42:32;;;;;;;;;;;;;;;22.08;36.25;96060.16;2048575;29;1179;-72
2022/03/26 01:43:34;;;;;;;;;;;;;;;22.08;36.19;96056.63;2047860;29;1568;-72
2022/03/26 01:44:37;;;;;;;;;;;;;;;22.08;36.31;96064.66;2048629;29;1047;-72
2022/03/26 01:45:39;;;;;;;;;;;;;;;22.07;36.32;96063.84;2048250;29;1465;-72
2022/03/26 01:46:48;;;;;;;;;;;;;;;22.07;36.41;96065.69;2049191;28;1071;-72
2022/03/26 01:47:49;;;;;;;;;;;;;;;22.06;36.21;96067.53;2043649;28;1739;-73
2022/03/26 01:48:51;;;;;;;;;;;;;;;22.05;36.20;96065.06;2040857;29;1479;-72
2022/03/26 01:49:52;;;;;;;;;;;;;;;22.05;36.33;96059.69;2043451;29;1542;-71
2022/03/26 01:50:54;;;;;;;;;;;;;;;22.04;36.20;96064.22;2048556;29;1150;-72
2022/03/26 01:51:57;;;;;;;;;;;;;;;22.05;36.18;96065.91;2048279;29;1651;-71
2022/03/26 01:52:59;;;;;;;;;;;;;;;22.04;36.45;96056.19;2047981;28;1670;-72
2022/03/26 01:54:01;;;;;;;;;;;;;;;22.04;36.32;96074.13;2048539;29;1111;-71
2022/03/26 01:55:04;;;;;;;;;;;;;;;22.03;36.22;96065.25;2046229;29;1686;-70
2022/03/26 01:56:06;;;;;;;;;;;;;;;22.02;36.48;96062.75;2047782;29;1661;-70
2022/03/26 01:57:10;;;;;;;;;;;;;;;22.03;36.32;96067.94;2048481;28;2003;-70
2022/03/26 01:58:13;;;;;;;;;;;;;;;22.04;36.44;96063.41;2044502;28;1587;-70
2022/03/26 01:59:15;;;;;;;;;;;;;;;22.05;36.26;96065.06;2047283;29;1587;-70
2022/03/26 02:00:17;;;;;;;;;;;;;;;22.05;36.31;96062.38;2045392;29;1725;-70
2022/03/26 02:01:19;;;;;;;;;;;;;;;22.03;36.31;96067.94;2045910;29;1505;-70
2022/03/26 02:02:22;;;;;;;;;;;;;;;22.02;36.36;96062.75;2040590;29;1064;-70
2022/03/26 02:03:24;;;;;;;;;;;;;;;22.03;36.18;96067.13;2041028;29;1078;-71
2022/03/26 02:04:26;;;;;;;;;;;;;;;22.04;36.39;96069.59;2041227;29;1096;-70
2022/03/26 02:05:29;;;;;;;;;;;;;;;22.10;36.25;96066.13;2044398;29;1493;-69
2022/03/26 02:06:31;;;;;;;;;;;;;;;22.08;36.17;96060.16;2048497;28;1491;-69
2022/03/26 02:07:33;;;;;;;;;;;;;;;22.06;36.39;96072.06;2047990;29;1689;-69
2022/03/26 02:08:34;;;;;;;;;;;;;;;22.03;36.27;96067.94;2044453;28;1441;-70
2022/03/26 02:09:36;;;;;;;;;;;;;;;22.02;36.44;96066.25;2041849;28;1537;-69
2022/03/26 02:10:38;;;;;;;;;;;;;;;22.01;36.22;96069.97;2047592;28;1809;-70
2022/03/26 02:11:41;;;;;;;;;;;;;;;22.01;36.26;96067.28;2045512;28;1587;-70
2022/03/26 02:12:42;;;;;;;;;;;;;;;21.99;36.40;96072.00;2045546;29;1691;-69
2022/03/26 02:13:51;;;;;;;;;;;;;;;21.99;36.52;96069.34;2049115;28;1059;-70
2022/03/26 02:14:53;;;;;;;;;;;;;;;21.99;36.45;96068.50;2049003;28;1429;-69
2022/03/26 02:15:55;;;;;;;;;;;;;;;21.99;36.40;96069.34;2048309;28;1729;-70
2022/03/26 02:16:56;;;;;;;;;;;;;;;22.00;36.47;96067.50;2048919;28;1914;-70
2022/03/26 02:17:58;;;;;;;;;;;;;;;21.98;36.52;96065.00;2048430;28;1166;-69
2022/03/26 02:19:00;;;;;;;;;;;;;;;21.98;36.46;96070.38;2048768;28;1104;-68
2022/03/26 02:20:09;;;;;;;;;;;;;;;21.98;36.49;96067.69;2048319;29;1120;-70
2022/03/26 02:21:10;;;;;;;;;;;;;;;21.97;36.25;96074.06;2045770;28;1175;-68
2022/03/26 02:22:12;;;;;;;;;;;;;;;21.98;36.46;96073.03;2047022;28;1530;-70
2022/03/26 02:23:13;;;;;;;;;;;;;;;21.97;36.53;96074.06;2049022;29;1082;-70
2022/03/26 02:24:15;;;;;;;;;;;;;;;21.98;36.53;96073.03;2045473;28;1461;-69
2022/03/26 02:25:17;;;;;;;;;;;;;;;21.98;36.63;96070.38;2040810;29;1017;-68
2022/03/26 02:26:21;;;;;;;;;;;;;;;21.97;36.66;96071.41;2040968;29;1120;-70
2022/03/26 02:27:24;;;;;;;;;;;;;;;21.98;36.58;96070.38;2048475;29;1457;-70
2022/03/26 02:28:25;;;;;;;;;;;;;;;21.99;36.62;96071.19;2048209;29;1445;-70
2022/03/26 02:29:28;;;;;;;;;;;;;;;21.99;36.46;96072.00;2047844;29;1195;-72
2022/03/26 02:30:30;;;;;;;;;;;;;;;21.99;36.79;96068.50;2048160;29;1132;-72
2022/03/26 02:31:32;;;;;;;;;;;;;;;21.99;36.74;96072.00;2044381;28;1116;-72
2022/03/26 02:32:33;;;;;;;;;;;;;;;22.00;36.62;96073.69;2048163;29;1328;-72
2022/03/26 02:33:35;;;;;;;;;;;;;;;21.98;36.67;96072.22;2048926;28;1108;-72
2022/03/26 02:34:38;;;;;;;;;;;;;;;21.99;36.69;96077.34;2048772;29;1156;-72
2022/03/26 02:35:59;;;;;;;;;;;;;;;21.98;36.57;96077.56;2047808;29;1591;-72
2022/03/26 02:37:01;;;;;;;;;;;;;;;21.98;36.63;96075.72;2045999;29;1965;-72
2022/03/26 02:38:02;;;;;;;;;;;;;;;21.99;36.64;96079.22;2041792;29;1730;-72
2022/03/26 02:39:05;;;;;;;;;;;;;;;21.98;36.78;96073.03;2047093;29;1527;-72
2022/03/26 02:40:07;;;;;;;;;;;;;;;21.97;36.74;96071.41;2048515;29;1015;-72
2022/03/26 02:41:09;;;;;;;;;;;;;;;21.99;36.62;96080.03;2047549;29;1499;-71
2022/03/26 02:42:12;;;;;;;;;;;;;;;21.98;36.77;96083.75;2046573;29;1071;-71
2022/03/26 02:43:13;;;;;;;;;;;;;;;21.98;36.91;96080.25;2041440;28;1519;-72
2022/03/26 02:44:15;;;;;;;;;;;;;;;21.99;36.64;96081.88;2040941;29;1532;-72
2022/03/26 02:45:17;;;;;;;;;;;;;;;21.99;36.92;96077.34;2040845;29;1175;-71
2022/03/26 02:46:19;;;;;;;;;;;;;;;21.99;36.99;96082.72;2041082;29;1224;-71
2022/03/26 02:47:20;;;;;;;;;;;;;;;21.99;36.89;96076.53;2039793;29;1159;-70
2022/03/26 02:48:22;;;;;;;;;;;;;;;21.99;37.00;96093.41;2040252;29;1710;-70
2022/03/26 02:49:23;;;;;;;;;;;;;;;22.00;36.78;96081.72;2044687;29;1483;-71
2022/03/26 02:50:25;;;;;;;;;;;;;;;22.00;36.95;96081.72;2046308;29;1581;-70
2022/03/26 02:51:27;;;;;;;;;;;;;;;21.99;36.84;96085.38;2048169;29;1176;-70
2022/03/26 02:52:28;;;;;;;;;;;;;;;22.01;37.04;96082.53;2044998;29;1656;-70
2022/03/26 02:53:30;;;;;;;;;;;;;;;22.03;37.07;96089.34;2036361;29;1192;-70
2022/03/26 02:54:32;;;;;;;;;;;;;;;22.05;36.96;96091.81;2044594;29;1597;-70
2022/03/26 02:55:34;;;;;;;;;;;;;;;22.05;36.89;96087.31;2042859;28;1657;-70
2022/03/26 02:56:36;;;;;;;;;;;;;;;22.07;36.64;96090.59;2045518;29;1521;-70
2022/03/26 02:57:37;;;;;;;;;;;;;;;22.06;36.79;96088.97;2048505;29;1977;-71
2022/03/26 02:58:39;;;;;;;;;;;;;;;22.07;36.68;96084.44;2048941;28;1009;-71
2022/03/26 02:59:41;;;;;;;;;;;;;;;22.09;36.77;96090.41;2048041;29;1116;-70
2022/03/26 03:00:43;;;;;;;;;;;;;;;22.10;36.77;96092.06;2046170;29;1770;-71
2022/03/26 03:01:45;;;;;;;;;;;;;;;22.08;36.59;96092.28;2048917;28;1035;-70
2022/03/26 03:02:47;;;;;;;;;;;;;;;22.10;36.47;96084.03;2048421;28;1319;-71
2022/03/26 03:03:49;;;;;;;;;;;;;;;22.09;36.93;96093.91;2048709;29;1164;-70
2022/03/26 03:04:51;;;;;;;;;;;;;;;22.09;36.97;96093.09;2042577;29;1563;-71
2022/03/26 03:05:52;;;;;;;;;;;;;;;22.08;36.74;96089.59;2047351;29;1590;-71
2022/03/26 03:06:54;;;;;;;;;;;;;;;22.08;36.95;96092.28;2044974;29;1489;-72
2022/03/26 03:07:56;;;;;;;;;;;;;;;22.09;36.75;96093.09;2048564;29;1057;-71
2022/03/26 03:08:58;;;;;;;;;;;;;;;22.09;36.92;96096.59;2047849;29;1029;-71
2022/03/26 03:10:00;;;;;;;;;;;;;;;22.08;36.69;96094.09;2047436;29;1036;-70
2022/03/26 03:11:01;;;;;;;;;;;;;;;22.09;36.65;96095.78;2039937;29;1690;-70
2022/03/26 03:12:03;;;;;;;;;;;;;;;22.10;36.95;96094.75;2040089;29;1716;-71
2022/03/26 03:13:04;;;;;;;;;;;;;;;22.08;36.74;96100.31;2044914;29;1529;-71
2022/03/26 03:14:06;;;;;;;;;;;;;;;22.09;36.87;96088.56;2043835;29;1452;-72
2022/03/26 03:15:09;;;;;;;;;;;;;;;22.10;36.87;96095.56;2043746;29;1667;-70
2022/03/26 03:16:11;;;;;;;;;;;;;;;22.11;36.79;96102.59;2044809;28;1417;-71
2022/03/26 03:17:13;;;;;;;;;;;;;;;22.10;36.93;96100.09;2048129;28;1989;-71
2022/03/26 03:18:14;;;;;;;;;;;;;;;22.10;37.08;96100.09;2048647;28;1509;-71
2022/03/26 03:19:16;;;;;;;;;;;;;;;22.10;36.90;96098.25;2046617;28;1453;-71
2022/03/26 03:20:19;;;;;;;;;;;;;;;22.11;36.70;96099.91;2048499;28;991;-71
2022/03/26 03:21:21;;;;;;;;;;;;;;;22.10;36.90;96102.78;2048665;28;1479;-70
2022/03/26 03:22:23;;;;;;;;;;;;;;;22.13;37.04;96105.88;2048599;29;1015;-70
2022/03/26 03:23:24;;;;;;;;;;;;;;;22.12;37.09;96098.88;2048620;29;1105;-71
2022/03/26 03:24:26;;;;;;;;;;;;;;;22.11;36.84;96101.78;2044496;28;1703;-71
2022/03/26 03:25:29;;;;;;;;;;;;;;;22.10;36.74;96103.59;2040624;29;1112;-71
2022/03/26 03:26:31;;;;;;;;;;;;;;;22.15;36.55;96102.19;2039143;29;1601;-71
2022/03/26 03:27:32;;;;;;;;;;;;;;;22.12;36.88;96096.19;2047079;29;1508;-72
2022/03/26 03:28:34;;;;;;;;;;;;;;;22.12;36.57;96104.22;2047706;29;1364;-71
2022/03/26 03:29:35;;;;;;;;;;;;;;;22.13;36.57;96099.69;2048638;29;1120;-69
2022/03/26 03:30:37;;;;;;;;;;;;;;;22.12;36.73;96093.53;2048402;29;999;-70
2022/03/26 03:31:44;;;;;;;;;;;;;;;22.12;36.61;96101.56;2047631;29;1027;-70
2022/03/26 03:32:45;;;;;;;;;;;;;;;22.08;36.71;96096.78;2047944;29;993;-70
2022/03/26 03:33:47;;;;;;;;;;;;;;;22.07;36.61;96108.50;2048058;28;1763;-71
2022/03/26 03:34:50;;;;;;;;;;;;;;;22.04;36.46;96106.22;2047480;29;1480;-71
2022/03/26 03:35:53;;;;;;;;;;;;;;;22.00;36.62;96108.47;2048133;29;1511;-71
2022/03/26 03:36:54;;;;;;;;;;;;;;;21.99;36.47;96105.97;2047825;29;1037;-71
2022/03/26 03:37:56;;;;;;;;;;;;;;;21.98;36.68;96110.50;2043072;29;1910;-71
2022/03/26 03:38:57;;;;;;;;;;;;;;;21.97;36.65;96106.19;2048146;29;1045;-71
2022/03/26 03:39:59;;;;;;;;;;;;;;;21.97;36.58;96108.00;2047911;28;1630;-70
2022/03/26 03:41:01;;;;;;;;;;;;;;;21.96;36.35;96104.50;2046415;29;1502;-71
2022/03/26 03:42:03;;;;;;;;;;;;;;;21.96;36.38;96104.50;2047964;29;985;-71
2022/03/26 03:43:05;;;;;;;;;;;;;;;21.97;36.52;96110.69;2047394;29;1398;-71
2022/03/26 03:44:07;;;;;;;;;;;;;;;21.95;36.54;96102.88;2048111;29;1090;-71
2022/03/26 03:45:09;;;;;;;;;;;;;;;21.95;36.32;96104.69;2040156;29;1116;-71
2022/03/26 03:46:11;;;;;;;;;;;;;;;21.96;36.31;96104.50;2040116;29;1044;-71
2022/03/26 03:47:12;;;;;;;;;;;;;;;21.95;36.50;96102.88;2039723;29;1159;-71
2022/03/26 03:48:14;;;;;;;;;;;;;;;21.94;36.32;96105.69;2047210;29;1705;-70
2022/03/26 03:49:16;;;;;;;;;;;;;;;21.93;36.25;96099.53;2042765;28;1662;-71
2022/03/26 03:50:18;;;;;;;;;;;;;;;21.92;36.30;96100.56;2046678;29;1408;-71
2022/03/26 03:51:20;;;;;;;;;;;;;;;21.93;36.26;96099.53;2040327;29;1039;-71
2022/03/26 03:52:21;;;;;;;;;;;;;;;21.93;36.07;96099.53;2047840;29;1116;-71
2022/03/26 03:53:23;;;;;;;;;;;;;;;21.92;36.11;96100.56;2048702;28;814;-73
2022/03/26 03:54:25;;;;;;;;;;;;;;;21.96;36.10;96107.19;2040486;28;1730;-73
2022/03/26 03:55:28;;;;;;;;;;;;;;;21.97;35.85;96102.66;2047563;29;1493;-73
2022/03/26 03:56:30;;;;;;;;;;;;;;;21.98;35.77;96107.00;2047146;29;1490;-73
2022/03/26 03:57:31;;;;;;;;;;;;;;;21.98;35.86;96107.00;2047006;29;1513;-73
2022/03/26 03:58:34;;;;;;;;;;;;;;;22.00;36.08;96104.97;2043866;29;1220;-71
2022/03/26 03:59:40;;;;;;;;;;;;;;;22.00;36.06;96105.78;2043963;28;1056;-73
2022/03/26 04:00:42;;;;;;;;;;;;;;;21.98;35.93;96107.84;2046240;28;1636;-73
2022/03/26 04:01:44;;;;;;;;;;;;;;;21.97;36.01;96106.19;2047672;29;1507;-72
2022/03/26 04:02:46;;;;;;;;;;;;;;;21.97;36.30;96110.69;2050210;29;991;-73
2022/03/26 04:03:48;;;;;;;;;;;;;;;21.96;36.17;96104.50;2050538;28;1443;-73
2022/03/26 04:04:49;;;;;;;;;;;;;;;21.96;36.02;96104.50;2053193;28;1693;-71
2022/03/26 04:05:51;;;;;;;;;;;;;;;21.96;36.30;96101.84;2050113;28;1082;-73
2022/03/26 04:06:53;;;;;;;;;;;;;;;21.96;36.33;96109.88;2049236;29;1113;-73
2022/03/26 04:07:54;;;;;;;;;;;;;;;21.96;36.05;96104.50;2048487;29;2097;-74
2022/03/26 04:08:56;;;;;;;;;;;;;;;21.95;36.33;96116.25;2049202;29;988;-72
2022/03/26 04:09:57;;;;;;;;;;;;;;;21.97;36.29;96108.88;2049183;29;1658;-75
2022/03/26 04:10:59;;;;;;;;;;;;;;;21.97;36.35;96108.00;2043781;29;1662;-72
2022/03/26 04:12:01;;;;;;;;;;;;;;;21.97;36.51;96108.88;2048183;29;1493;-73
2022/03/26 04:13:02;;;;;;;;;;;;;;;21.98;36.46;96107.84;2048932;29;1109;-73
2022/03/26 04:14:06;;;;;;;;;;;;;;;21.98;36.29;96113.19;2049047;29;1231;-72
2022/03/26 04:15:08;;;;;;;;;;;;;;;21.96;36.28;96109.88;2049742;28;1075;-71
2022/03/26 04:16:10;;;;;;;;;;;;;;;21.98;36.47;96115.88;2049196;29;1104;-72
2022/03/26 04:17:12;;;;;;;;;;;;;;;21.97;36.29;96108.00;2049442;28;1188;-72
2022/03/26 04:18:14;;;;;;;;;;;;;;;21.97;36.64;96113.38;2048288;29;1902;-72
2022/03/26 04:19:18;;;;;;;;;;;;;;;21.96;36.72;96117.91;2045835;29;1468;-72
2022/03/26 04:20:20;;;;;;;;;;;;;;;21.97;36.57;96119.56;2043944;29;1707;-72
2022/03/26 04:21:22;;;;;;;;;;;;;;;21.97;36.57;96119.56;2046132;29;1004;-71
2022/03/26 04:22:24;;;;;;;;;;;;;;;21.97;36.46;96127.59;2047491;29;998;-73
2022/03/26 04:23:26;;;;;;;;;;;;;;;21.96;36.59;96117.91;2048516;29;1100;-73
2022/03/26 04:24:27;;;;;;;;;;;;;;;21.97;36.62;96122.25;2045923;28;1730;-73
2022/03/26 04:25:31;;;;;;;;;;;;;;;21.97;36.70;96122.25;2041702;29;1036;-73
2022/03/26 04:26:33;;;;;;;;;;;;;;;21.99;36.60;96125.53;2040712;29;1533;-72
2022/03/26 04:27:34;;;;;;;;;;;;;;;21.98;36.90;96121.22;2041667;29;1526;-73
2022/03/26 04:28:36;;;;;;;;;;;;;;;21.97;36.71;96122.25;2041391;29;1296;-73
2022/03/26 04:29:37;;;;;;;;;;;;;;;21.99;36.78;96125.53;2041013;29;1064;-73
2022/03/26 04:30:40;;;;;;;;;;;;;;;21.97;36.89;96127.59;2043635;29;1701;-73
2022/03/26 04:31:41;;;;;;;;;;;;;;;21.97;36.71;96127.59;2048841;29;1056;-72
2022/03/26 04:32:43;;;;;;;;;;;;;;;21.97;36.88;96138.31;2044244;29;1089;-72
2022/03/26 04:33:45;;;;;;;;;;;;;;;21.99;36.77;96130.88;2046986;28;1545;-73
2022/03/26 04:34:46;;;;;;;;;;;;;;;21.99;36.82;96130.06;2042601;29;1734;-73
2022/03/26 04:35:48;;;;;;;;;;;;;;;21.98;36.81;96128.41;2041773;29;1285;-71
2022/03/26 04:36:49;;;;;;;;;;;;;;;21.97;36.88;96127.59;2042543;29;1438;-72
2022/03/26 04:37:55;;;;;;;;;;;;;;;21.96;37.11;96130.44;2049425;28;981;-73
2022/03/26 04:39:00;;;;;;;;;;;;;;;21.95;36.98;96137.66;2048853;28;1985;-73
2022/03/26 04:40:03;;;;;;;;;;;;;;;21.97;36.89;96140.97;2049271;28;1623;-73
2022/03/26 04:41:05;;;;;;;;;;;;;;;21.96;36.91;96141.16;2040922;29;1168;-72
2022/03/26 04:42:06;;;;;;;;;;;;;;;21.97;36.96;96140.97;2045160;29;1527;-73
2022/03/26 04:43:08;;;;;;;;;;;;;;;21.97;37.06;96138.31;2045247;28;1224;-72
2022/03/26 04:44:09;;;;;;;;;;;;;;;21.98;36.88;96142.63;2040823;29;1483;-71
2022/03/26 04:45:11;;;;;;;;;;;;;;;21.99;36.85;96141.59;2047980;29;1475;-73
2022/03/26 04:46:13;;;;;;;;;;;;;;;22.00;37.03;96137.91;2048933;29;1092;-72
2022/03/26 04:47:14;;;;;;;;;;;;;;;22.01;37.04;96136.88;2049350;28;985;-72
2022/03/26 04:48:16;;;;;;;;;;;;;;;22.01;36.94;96138.75;2049451;28;1087;-72
2022/03/26 04:49:17;;;;;;;;;;;;;;;22.01;36.95;96149.44;2047756;28;1475;-72
2022/03/26 04:50:19;;;;;;;;;;;;;;;21.99;36.77;96140.78;2045986;29;1721;-72
2022/03/26 04:51:21;;;;;;;;;;;;;;;22.00;36.96;96137.09;2048051;29;1464;-72
2022/03/26 04:52:22;;;;;;;;;;;;;;;22.00;37.20;96137.09;2049328;28;1165;-73
2022/03/26 04:53:24;;;;;;;;;;;;;;;22.01;36.95;96144.09;2046197;28;1598;-73
2022/03/26 04:54:25;;;;;;;;;;;;;;;22.02;37.15;96149.22;2038779;29;1108;-73
2022/03/26 04:55:27;;;;;;;;;;;;;;;22.02;37.13;96149.22;2045853;29;1483;-73
2022/03/26 04:56:28;;;;;;;;;;;;;;;22.03;37.12;96150.91;2046415;28;1657;-74
2022/03/26 04:57:31;;;;;;;;;;;;;;;22.04;37.21;96146.38;2047004;29;1564;-74
2022/03/26 04:58:33;;;;;;;;;;;;;;;22.03;37.21;96156.25;2049157;28;1993;-73
2022/03/26 04:59:34;;;;;;;;;;;;;;;22.04;37.25;96152.56;2048806;29;1031;-74
2022/03/26 05:00:36;;;;;;;;;;;;;;;22.05;36.88;96159.59;2045069;29;1700;-73
2022/03/26 05:01:38;;;;;;;;;;;;;;;22.04;37.07;96149.88;2040811;29;1062;-73
2022/03/26 05:02:40;;;;;;;;;;;;;;;22.04;37.18;96157.09;2047960;29;1424;-72
2022/03/26 05:03:44;;;;;;;;;;;;;;;22.04;37.14;96154.41;2047781;29;1600;-73
2022/03/26 05:04:46;;;;;;;;;;;;;;;22.05;37.05;96156.91;2046375;29;1640;-73
2022/03/26 05:05:47;;;;;;;;;;;;;;;22.05;37.40;96159.59;2037115;29;1067;-73
2022/03/26 05:06:49;;;;;;;;;;;;;;;22.05;37.39;96164.06;2041119;29;1113;-74
2022/03/26 05:07:52;;;;;;;;;;;;;;;22.05;37.15;96167.59;2041088;29;1048;-73
2022/03/26 05:08:54;;;;;;;;;;;;;;;22.05;37.24;96162.25;2044018;29;1363;-73
2022/03/26 05:09:55;;;;;;;;;;;;;;;22.05;37.29;96159.59;2048585;29;1122;-72
2022/03/26 05:10:58;;;;;;;;;;;;;;;22.05;37.17;96162.25;2047337;28;1489;-72
2022/03/26 05:11:59;;;;;;;;;;;;;;;22.04;37.54;96155.22;2041246;29;1650;-72
2022/03/26 05:13:01;;;;;;;;;;;;;;;22.06;37.25;96155.88;2044605;28;1405;-72
2022/03/26 05:14:03;;;;;;;;;;;;;;;22.07;37.45;96160.19;2044234;29;1117;-71
2022/03/26 05:15:05;;;;;;;;;;;;;;;22.08;37.50;96163.69;2042104;29;1240;-72
2022/03/26 05:16:07;;;;;;;;;;;;;;;22.08;37.18;96161.88;2049336;28;1149;-70
2022/03/26 05:17:09;;;;;;;;;;;;;;;22.08;37.63;96159.19;2044368;28;1101;-70
2022/03/26 05:18:13;;;;;;;;;;;;;;;22.08;37.45;96164.53;2044242;29;1670;-70
2022/03/26 05:19:14;;;;;;;;;;;;;;;22.08;37.38;96163.69;2044052;29;1911;-70
2022/03/26 05:20:16;;;;;;;;;;;;;;;22.08;37.57;96158.34;2043241;28;1674;-70
2022/03/26 05:21:18;;;;;;;;;;;;;;;22.08;37.38;96161.88;2047072;29;1492;-70
2022/03/26 05:22:19;;;;;;;;;;;;;;;22.07;37.59;96168.22;2048314;28;1493;-71
2022/03/26 05:23:21;;;;;;;;;;;;;;;22.07;37.42;96168.22;2048138;29;1098;-70
2022/03/26 05:24:22;;;;;;;;;;;;;;;22.08;37.53;96167.22;2047844;29;1610;-70
2022/03/26 05:25:24;;;;;;;;;;;;;;;22.07;37.56;96170.91;2045303;29;1450;-70
2022/03/26 05:26:26;;;;;;;;;;;;;;;22.07;37.42;96170.06;2041002;29;1065;-70
2022/03/26 05:27:27;;;;;;;;;;;;;;;22.06;37.48;96163.91;2038516;29;1037;-70